createdAt,value
2023-02-01T00:00:40.503Z,82.07
2023-02-01T00:03:09.478Z,83.74
2023-02-01T00:05:37.193Z,83.32
2023-02-01T00:08:05.286Z,82.58
2023-02-01T00:10:32.963Z,82.50
2023-02-01T00:13:00.785Z,82.86
2023-02-01T00:15:29.921Z,83.40
2023-02-01T00:17:57.791Z,83.61
2023-02-01T00:20:25.532Z,82.17
2023-02-01T00:22:53.257Z,82.25
2023-02-01T00:25:21.013Z,83.61
2023-02-01T00:27:50.990Z,83.27
2023-02-01T00:30:20.105Z,84.51
2023-02-01T00:32:49.441Z,84.05
2023-02-01T00:35:17.506Z,81.27
2023-02-01T00:37:45.244Z,81.60
2023-02-01T00:40:13.880Z,84.14
2023-02-01T00:42:41.567Z,83.73
2023-02-01T00:45:10.405Z,82.40
2023-02-01T00:47:38.125Z,82.36
2023-02-01T00:50:08.205Z,83.19
2023-02-01T00:52:35.914Z,84.43
2023-02-01T00:55:03.647Z,83.21
2023-02-01T00:57:31.511Z,81.61
2023-02-01T00:59:59.204Z,81.95
2023-02-01T01:02:28.065Z,83.32
2023-02-01T01:04:55.802Z,81.60
2023-02-01T01:07:25.164Z,82.53
2023-02-01T01:09:52.928Z,83.97
2023-02-01T01:12:20.877Z,83.53
2023-02-01T01:14:48.968Z,82.99
2023-02-01T01:17:17.235Z,83.48
2023-02-01T01:19:45.072Z,82.28
2023-02-01T01:22:12.897Z,81.09
2023-02-01T01:24:42.102Z,82.49
2023-02-01T01:27:10.221Z,81.51
2023-02-01T01:29:38.420Z,82.05
2023-02-01T01:32:06.287Z,82.01
2023-02-01T01:34:34.109Z,80.28
2023-02-01T01:37:01.892Z,81.33
2023-02-01T01:39:29.796Z,77.90
2023-02-01T01:41:59.400Z,79.18
2023-02-01T01:45:01.870Z,80.79
2023-02-01T01:47:35.218Z,79.12
2023-02-01T01:50:04.221Z,79.90
2023-02-01T01:52:32.340Z,80.90
2023-02-01T01:55:01.016Z,79.29
2023-02-01T01:57:34.740Z,80.17
2023-02-01T02:00:08.032Z,81.34
2023-02-01T02:02:45.074Z,81.35
2023-02-01T02:05:17.793Z,81.96
2023-02-01T02:07:48.627Z,83.37
2023-02-01T02:10:18.199Z,81.68
2023-02-01T02:12:50.217Z,82.57
2023-02-01T02:15:19.160Z,82.22
2023-02-01T02:17:57.558Z,80.62
2023-02-01T02:20:53.756Z,81.67
2023-02-01T02:23:56.130Z,80.67
2023-02-01T02:26:55.635Z,79.78
2023-02-01T02:29:58.313Z,79.32
2023-02-01T02:33:00.467Z,78.72
2023-02-01T02:35:37.235Z,77.36
2023-02-01T02:38:14.256Z,77.78
2023-02-01T02:40:51.801Z,77.22
2023-02-01T02:43:41.190Z,77.43
2023-02-01T02:46:47.529Z,77.66
2023-02-01T02:49:21.085Z,78.35
2023-02-01T02:52:12.032Z,77.75
2023-02-01T02:54:47.884Z,76.80
2023-02-01T02:57:39.037Z,76.05
2023-02-01T03:00:28.782Z,77.12
2023-02-01T03:03:14.959Z,75.81
2023-02-01T03:05:45.300Z,76.68
2023-02-01T03:08:17.084Z,75.88
2023-02-01T03:10:58.006Z,79.02
2023-02-01T03:13:37.300Z,78.26
2023-02-01T03:16:14.379Z,78.15
2023-02-01T03:18:50.179Z,78.70
2023-02-01T03:21:22.444Z,77.97
2023-02-01T03:23:54.985Z,78.67
2023-02-01T03:26:26.766Z,78.30
2023-02-01T03:28:59.438Z,76.42
2023-02-01T03:31:27.347Z,76.90
2023-02-01T03:33:55.653Z,77.39
2023-02-01T03:36:29.934Z,77.56
2023-02-01T03:39:06.496Z,78.09
2023-02-01T03:41:39.635Z,75.64
2023-02-01T03:44:15.522Z,77.30
2023-02-01T03:46:49.482Z,79.92
2023-02-01T03:49:23.549Z,77.51
2023-02-01T03:51:53.285Z,78.67
2023-02-01T03:54:23.544Z,79.33
2023-02-01T03:56:52.796Z,79.09
2023-02-01T03:59:20.737Z,78.25
2023-02-01T04:01:48.538Z,78.63
2023-02-01T04:04:20.767Z,80.00
2023-02-01T04:06:52.450Z,79.19
2023-02-01T04:09:22.379Z,79.93
2023-02-01T04:11:50.103Z,79.47
2023-02-01T04:14:17.942Z,80.79
2023-02-01T04:16:45.767Z,79.50
2023-02-01T04:19:13.642Z,77.67
2023-02-01T04:21:41.390Z,79.25
2023-02-01T04:24:10.096Z,79.69
2023-02-01T04:26:39.259Z,79.91
2023-02-01T04:29:07.028Z,79.03
2023-02-01T04:31:36.717Z,81.05
2023-02-01T04:34:04.491Z,78.42
2023-02-01T04:36:32.235Z,78.89
2023-02-01T04:38:59.945Z,74.84
2023-02-01T04:41:27.641Z,76.74
2023-02-01T04:43:56.722Z,77.15
2023-02-01T04:46:24.469Z,74.42
2023-02-01T04:48:52.269Z,75.82
2023-02-01T04:51:20.029Z,76.81
2023-02-01T04:53:47.815Z,79.35
2023-02-01T04:56:15.617Z,87.77
2023-02-01T04:58:43.344Z,93.53
2023-02-01T05:01:12.434Z,97.42
2023-02-01T05:03:40.220Z,100.00
2023-02-01T05:06:07.976Z,100.00
2023-02-01T05:08:37.876Z,100.00
2023-02-01T05:11:06.887Z,100.00
2023-02-01T05:13:50.602Z,100.00
2023-02-01T05:16:19.692Z,100.00
2023-02-01T05:18:47.768Z,100.00
2023-02-01T05:21:15.524Z,100.00
2023-02-01T05:23:57.177Z,100.00
2023-02-01T05:26:27.526Z,100.00
2023-02-01T05:28:55.452Z,100.00
2023-02-01T05:31:24.667Z,100.00
2023-02-01T05:33:52.618Z,100.00
2023-02-01T05:36:20.272Z,100.00
2023-02-01T05:38:48.031Z,100.00
2023-02-01T05:41:15.855Z,100.00
2023-02-01T05:43:43.652Z,100.00
2023-02-01T05:46:13.792Z,100.00
2023-02-01T05:48:43.926Z,100.00
2023-02-01T05:51:12.728Z,100.00
2023-02-01T05:53:40.544Z,100.00
2023-02-01T05:56:08.810Z,100.00
2023-02-01T05:58:36.565Z,100.00
2023-02-01T06:01:05.308Z,100.00
2023-02-01T06:03:33.166Z,100.00
2023-02-01T06:06:03.043Z,100.00
2023-02-01T06:08:30.738Z,100.00
2023-02-01T06:11:01.995Z,100.00
2023-02-01T06:13:29.808Z,100.00
2023-02-01T06:15:58.188Z,100.00
2023-02-01T06:18:26.840Z,100.00
2023-02-01T06:20:55.716Z,100.00
2023-02-01T06:23:25.216Z,100.00
2023-02-01T06:25:53.554Z,98.82
2023-02-01T06:28:21.744Z,95.72
2023-02-01T06:30:49.532Z,98.71
2023-02-01T06:33:17.522Z,100.00
2023-02-01T06:35:45.941Z,100.00
2023-02-01T06:38:13.852Z,100.00
2023-02-01T06:40:43.231Z,100.00
2023-02-01T06:43:11.076Z,100.00
2023-02-01T06:45:41.854Z,100.00
2023-02-01T06:48:09.571Z,100.00
2023-02-01T06:50:37.338Z,100.00
2023-02-01T06:53:05.145Z,100.00
2023-02-01T06:55:32.959Z,100.00
2023-02-01T06:58:03.010Z,100.00
2023-02-01T07:00:31.238Z,100.00
2023-02-01T07:03:00.380Z,100.00
2023-02-01T07:05:28.252Z,100.00
2023-02-01T07:07:56.036Z,100.00
2023-02-01T07:10:24.294Z,100.00
2023-02-01T07:12:52.635Z,100.00
2023-02-01T07:15:24.382Z,100.00
2023-02-01T07:17:53.150Z,100.00
2023-02-01T07:20:21.218Z,100.00
2023-02-01T07:22:49.960Z,100.00
2023-02-01T07:25:17.977Z,100.00
2023-02-01T07:27:45.799Z,100.00
2023-02-01T07:30:14.292Z,100.00
2023-02-01T07:32:43.451Z,98.47
2023-02-01T07:35:11.170Z,97.77
2023-02-01T07:37:38.899Z,97.63
2023-02-01T07:40:08.044Z,97.54
2023-02-01T07:42:36.324Z,96.16
2023-02-01T07:45:19.872Z,95.75
2023-02-01T07:47:50.390Z,97.55
2023-02-01T07:50:18.709Z,93.73
2023-02-01T07:52:46.434Z,96.38
2023-02-01T07:55:14.161Z,93.83
2023-02-01T07:57:42.673Z,95.31
2023-02-01T08:00:29.390Z,93.50
2023-02-01T08:02:59.705Z,94.03
2023-02-01T08:05:27.757Z,92.66
2023-02-01T08:07:55.687Z,95.44
2023-02-01T08:10:23.897Z,91.45
2023-02-01T08:12:52.990Z,93.67
2023-02-01T08:15:20.961Z,95.20
2023-02-01T08:17:49.689Z,88.66
2023-02-01T08:20:19.760Z,88.96
2023-02-01T08:22:47.716Z,89.69
2023-02-01T08:25:15.485Z,88.28
2023-02-01T08:27:43.379Z,88.60
2023-02-01T08:30:12.584Z,85.87
2023-02-01T08:32:40.384Z,83.80
2023-02-01T08:35:09.070Z,85.58
2023-02-01T08:37:38.331Z,84.39
2023-02-01T08:40:07.628Z,85.33
2023-02-01T08:42:53.739Z,84.85
2023-02-01T08:45:24.792Z,83.82
2023-02-01T08:47:52.835Z,83.23
2023-02-01T08:50:21.880Z,83.13
2023-02-01T08:52:51.989Z,82.78
2023-02-01T08:55:20.541Z,83.15
2023-02-01T08:57:48.423Z,84.16
2023-02-01T09:00:18.745Z,85.46
2023-02-01T09:02:47.530Z,82.66
2023-02-01T09:05:17.430Z,84.05
2023-02-01T09:07:45.340Z,82.24
2023-02-01T09:10:17.238Z,80.76
2023-02-01T09:12:46.789Z,77.95
2023-02-01T09:15:14.646Z,74.14
2023-02-01T09:17:44.483Z,75.23
2023-02-01T09:20:13.315Z,74.13
2023-02-01T09:22:41.659Z,74.96
2023-02-01T09:25:10.119Z,74.40
2023-02-01T09:27:40.192Z,75.39
2023-02-01T09:30:09.370Z,77.24
2023-02-01T09:32:37.982Z,75.59
2023-02-01T09:35:06.847Z,76.65
2023-02-01T09:37:35.074Z,75.71
2023-02-01T09:40:03.439Z,74.54
2023-02-01T09:42:51.741Z,73.97
2023-02-01T09:45:26.815Z,73.90
2023-02-01T09:47:58.109Z,73.80
2023-02-01T09:50:33.471Z,75.69
2023-02-01T09:53:04.336Z,74.98
2023-02-01T09:55:40.257Z,76.98
2023-02-01T09:58:15.929Z,74.33
2023-02-01T10:00:52.605Z,73.27
2023-02-01T10:03:20.629Z,71.81
2023-02-01T10:06:08.517Z,73.33
2023-02-01T10:08:52.976Z,74.85
2023-02-01T10:11:30.175Z,73.61
2023-02-01T10:14:05.240Z,73.33
2023-02-01T10:16:45.557Z,73.24
2023-02-01T10:19:31.415Z,72.27
2023-02-01T10:22:03.310Z,71.53
2023-02-01T10:24:40.515Z,70.71
2023-02-01T10:27:16.548Z,71.65
2023-02-01T10:29:50.324Z,72.04
2023-02-01T10:32:19.891Z,69.49
2023-02-01T10:34:54.094Z,73.91
2023-02-01T10:37:29.622Z,70.29
2023-02-01T10:39:59.660Z,68.47
2023-02-01T10:42:29.686Z,67.44
2023-02-01T10:45:02.981Z,67.78
2023-02-01T10:47:30.804Z,66.74
2023-02-01T10:50:07.753Z,66.62
2023-02-01T10:52:43.502Z,69.69
2023-02-01T10:55:35.592Z,68.46
2023-02-01T10:58:05.673Z,68.43
2023-02-01T11:00:44.947Z,67.31
2023-02-01T11:03:38.076Z,67.58
2023-02-01T11:06:15.677Z,68.34
2023-02-01T11:08:49.970Z,68.36
2023-02-01T11:11:19.472Z,68.05
2023-02-01T11:13:54.741Z,69.58
2023-02-01T11:16:30.194Z,65.78
2023-02-01T11:19:00.281Z,67.48
2023-02-01T11:21:29.075Z,69.08
2023-02-01T11:24:02.209Z,68.28
2023-02-01T11:26:30.309Z,67.36
2023-02-01T11:29:03.603Z,68.34
2023-02-01T11:31:35.818Z,67.40
2023-02-01T11:34:10.128Z,67.49
2023-02-01T11:36:38.982Z,66.30
2023-02-01T11:39:25.007Z,66.29
2023-02-01T11:42:06.505Z,64.50
2023-02-01T11:44:37.436Z,66.40
2023-02-01T11:47:25.321Z,66.40
2023-02-01T11:49:55.071Z,64.66
2023-02-01T11:52:50.695Z,63.68
2023-02-01T11:55:42.631Z,64.82
2023-02-01T11:58:24.764Z,64.29
2023-02-01T12:01:13.159Z,63.38
2023-02-01T12:04:10.579Z,64.41
2023-02-01T12:06:51.525Z,63.24
2023-02-01T12:09:34.947Z,61.92
2023-02-01T12:12:10.377Z,63.19
2023-02-01T12:15:05.485Z,63.43
2023-02-01T12:17:48.447Z,65.29
2023-02-01T12:20:31.030Z,65.25
2023-02-01T12:23:12.789Z,65.55
2023-02-01T12:25:56.221Z,66.11
2023-02-01T12:28:54.641Z,69.97
2023-02-01T12:31:38.486Z,73.73
2023-02-01T12:34:20.946Z,73.98
2023-02-01T12:36:55.380Z,76.89
2023-02-01T12:39:26.416Z,76.46
2023-02-01T12:41:59.258Z,79.29
2023-02-01T12:44:34.577Z,82.81
2023-02-01T12:47:08.690Z,86.83
2023-02-01T12:49:47.150Z,87.40
2023-02-01T12:52:21.538Z,88.62
2023-02-01T12:54:54.498Z,87.68
2023-02-01T12:57:27.722Z,88.63
2023-02-01T13:00:03.480Z,89.31
2023-02-01T13:02:41.444Z,87.09
2023-02-01T13:05:17.571Z,91.46
2023-02-01T13:07:53.102Z,87.81
2023-02-01T13:10:26.254Z,94.62
2023-02-01T13:12:58.631Z,99.34
2023-02-01T13:15:30.594Z,100.00
2023-02-01T13:18:03.025Z,100.00
2023-02-01T13:20:34.406Z,100.00
2023-02-01T13:23:09.894Z,100.00
2023-02-01T13:25:44.687Z,100.00
2023-02-01T13:28:18.624Z,100.00
2023-02-01T13:31:06.420Z,100.00
2023-02-01T13:33:56.405Z,100.00
2023-02-01T13:36:42.742Z,100.00
2023-02-01T13:39:36.497Z,100.00
2023-02-01T13:42:07.349Z,100.00
2023-02-01T13:44:40.552Z,100.00
2023-02-01T13:47:20.063Z,100.00
2023-02-01T13:49:47.896Z,100.00
2023-02-01T13:52:29.678Z,100.00
2023-02-01T13:55:26.876Z,100.00
2023-02-01T13:58:05.205Z,100.00
2023-02-01T14:00:35.949Z,100.00
2023-02-01T14:03:19.435Z,100.00
2023-02-01T14:06:05.432Z,100.00
2023-02-01T14:09:14.900Z,100.00
2023-02-01T14:11:48.295Z,100.00
2023-02-01T14:14:52.162Z,100.00
2023-02-01T14:17:40.799Z,100.00
2023-02-01T14:20:49.958Z,100.00
2023-02-01T14:23:34.161Z,100.00
2023-02-01T14:26:09.195Z,100.00
2023-02-01T14:28:42.771Z,100.00
2023-02-01T14:31:28.499Z,100.00
2023-02-01T14:34:00.838Z,100.00
2023-02-01T14:36:44.079Z,100.00
2023-02-01T14:39:36.933Z,100.00
2023-02-01T14:42:16.802Z,100.00
2023-02-01T14:44:58.625Z,100.00
2023-02-01T14:47:31.802Z,100.00
2023-02-01T14:50:13.965Z,100.00
2023-02-01T14:52:45.907Z,100.00
2023-02-01T14:55:23.870Z,100.00
2023-02-01T14:57:54.914Z,100.00
2023-02-01T15:00:27.399Z,100.00
2023-02-01T15:02:57.326Z,100.00
2023-02-01T15:05:31.941Z,100.00
2023-02-01T15:08:05.431Z,100.00
2023-02-01T15:10:35.820Z,100.00
2023-02-01T15:13:03.580Z,100.00
2023-02-01T15:15:37.196Z,100.00
2023-02-01T15:18:05.343Z,100.00
2023-02-01T15:20:34.686Z,100.00
2023-02-01T15:23:05.229Z,100.00
2023-02-01T15:25:35.295Z,100.00
2023-02-01T15:28:03.199Z,100.00
2023-02-01T15:30:35.338Z,100.00
2023-02-01T15:33:09.190Z,100.00
2023-02-01T15:35:43.379Z,100.00
2023-02-01T15:38:32.639Z,100.00
2023-02-01T15:41:03.706Z,100.00
2023-02-01T15:43:34.573Z,100.00
2023-02-01T15:46:09.038Z,100.00
2023-02-01T15:48:41.591Z,100.00
2023-02-01T15:51:16.251Z,100.00
2023-02-01T15:53:48.673Z,100.00
2023-02-01T15:56:18.155Z,100.00
2023-02-01T15:58:50.665Z,100.00
2023-02-01T16:01:20.829Z,100.00
2023-02-01T16:03:49.626Z,100.00
2023-02-01T16:06:30.831Z,100.00
2023-02-01T16:09:04.082Z,100.00
2023-02-01T16:11:33.616Z,100.00
2023-02-01T16:14:02.401Z,100.00
2023-02-01T16:16:32.017Z,100.00
2023-02-01T16:18:59.862Z,100.00
2023-02-01T16:21:27.896Z,100.00
2023-02-01T16:23:55.851Z,100.00
2023-02-01T16:26:23.907Z,100.00
2023-02-01T16:28:54.224Z,100.00
2023-02-01T16:31:28.204Z,100.00
2023-02-01T16:33:57.551Z,100.00
2023-02-01T16:36:26.520Z,100.00
2023-02-01T16:38:54.399Z,100.00
2023-02-01T16:41:24.499Z,100.00
2023-02-01T16:43:54.292Z,97.47
2023-02-01T16:46:25.968Z,96.40
2023-02-01T16:48:58.886Z,95.71
2023-02-01T16:51:30.519Z,97.59
2023-02-01T16:53:58.711Z,93.87
2023-02-01T16:56:32.096Z,92.57
2023-02-01T16:59:00.954Z,89.81
2023-02-01T17:01:30.257Z,91.60
2023-02-01T17:03:59.928Z,91.09
2023-02-01T17:06:30.103Z,90.44
2023-02-01T17:09:00.032Z,92.34
2023-02-01T17:11:31.080Z,91.84
2023-02-01T17:14:03.006Z,92.19
2023-02-01T17:16:37.003Z,91.49
2023-02-01T17:19:17.199Z,90.42
2023-02-01T17:21:47.848Z,91.08
2023-02-01T17:24:17.327Z,90.61
2023-02-01T17:26:47.270Z,89.52
2023-02-01T17:29:15.586Z,92.88
2023-02-01T17:31:47.850Z,95.07
2023-02-01T17:34:22.501Z,90.82
2023-02-01T17:36:51.712Z,90.63
2023-02-01T17:39:38.329Z,91.32
2023-02-01T17:42:09.109Z,90.49
2023-02-01T17:44:37.410Z,88.12
2023-02-01T17:47:06.568Z,90.68
2023-02-01T17:49:44.087Z,91.06
2023-02-01T17:52:18.916Z,90.13
2023-02-01T17:54:51.173Z,90.36
2023-02-01T17:57:20.488Z,89.79
2023-02-01T17:59:49.588Z,89.50
2023-02-01T18:02:24.914Z,87.42
2023-02-01T18:04:57.361Z,87.29
2023-02-01T18:07:25.444Z,88.37
2023-02-01T18:09:54.031Z,89.24
2023-02-01T18:12:25.615Z,88.36
2023-02-01T18:14:53.983Z,93.29
2023-02-01T18:17:22.620Z,91.94
2023-02-01T18:19:50.925Z,93.63
2023-02-01T18:22:24.355Z,93.22
2023-02-01T18:24:52.532Z,90.63
2023-02-01T18:27:21.066Z,91.54
2023-02-01T18:29:49.304Z,91.50
2023-02-01T18:32:17.259Z,88.87
2023-02-01T18:34:45.249Z,90.96
2023-02-01T18:37:13.383Z,89.55
2023-02-01T18:39:43.909Z,87.83
2023-02-01T18:42:12.368Z,92.23
2023-02-01T18:44:40.601Z,87.35
2023-02-01T18:47:08.671Z,89.58
2023-02-01T18:49:37.755Z,95.48
2023-02-01T18:52:06.773Z,98.56
2023-02-01T18:54:35.547Z,100.00
2023-02-01T18:57:07.361Z,100.00
2023-02-01T18:59:35.784Z,100.00
2023-02-01T19:02:04.452Z,100.00
2023-02-01T19:04:33.399Z,100.00
2023-02-01T19:07:04.839Z,100.00
2023-02-01T19:09:57.580Z,100.00
2023-02-01T19:12:50.882Z,100.00
2023-02-01T19:15:47.150Z,100.00
2023-02-01T19:18:28.223Z,100.00
2023-02-01T19:21:13.379Z,100.00
2023-02-01T19:23:48.402Z,100.00
2023-02-01T19:26:28.049Z,100.00
2023-02-01T19:29:01.704Z,100.00
2023-02-01T19:31:30.035Z,100.00
2023-02-01T19:33:58.253Z,100.00
2023-02-01T19:36:27.117Z,100.00
2023-02-01T19:38:57.267Z,100.00
2023-02-01T19:41:29.010Z,100.00
2023-02-01T19:44:00.146Z,100.00
2023-02-01T19:46:38.286Z,100.00
2023-02-01T19:49:10.414Z,99.28
2023-02-01T19:51:41.270Z,98.77
2023-02-01T19:54:10.106Z,95.17
2023-02-01T19:56:40.337Z,93.48
2023-02-01T19:59:08.585Z,94.85
2023-02-01T20:01:38.157Z,94.59
2023-02-01T20:04:06.606Z,91.51
2023-02-01T20:06:39.658Z,91.63
2023-02-01T20:09:08.062Z,92.67
2023-02-01T20:11:36.153Z,91.04
2023-02-01T20:14:04.630Z,88.69
2023-02-01T20:16:33.170Z,90.26
2023-02-01T20:19:02.733Z,87.08
2023-02-01T20:21:30.845Z,89.05
2023-02-01T20:23:58.767Z,85.54
2023-02-01T20:26:27.734Z,83.36
2023-02-01T20:28:56.474Z,82.16
2023-02-01T20:31:28.862Z,82.25
2023-02-01T20:33:57.596Z,92.61
2023-02-01T20:36:28.875Z,100.00
2023-02-01T20:38:58.644Z,100.00
2023-02-01T20:41:27.166Z,100.00
2023-02-01T20:43:55.626Z,100.00
2023-02-01T20:46:24.418Z,100.00
2023-02-01T20:48:53.278Z,100.00
2023-02-01T20:51:22.888Z,100.00
2023-02-01T20:53:54.319Z,100.00
2023-02-01T20:56:23.273Z,100.00
2023-02-01T20:59:03.667Z,100.00
2023-02-01T21:01:32.170Z,100.00
2023-02-01T21:04:01.000Z,100.00
2023-02-01T21:06:29.418Z,100.00
2023-02-01T21:08:58.852Z,100.00
2023-02-01T21:11:27.180Z,100.00
2023-02-01T21:13:55.098Z,100.00
2023-02-01T21:16:23.607Z,100.00
2023-02-01T21:18:53.855Z,100.00
2023-02-01T21:21:22.721Z,100.00
2023-02-01T21:23:55.176Z,100.00
2023-02-01T21:26:26.571Z,100.00
2023-02-01T21:28:56.176Z,100.00
2023-02-01T21:31:25.873Z,100.00
2023-02-01T21:33:54.271Z,100.00
2023-02-01T21:36:22.323Z,100.00
2023-02-01T21:38:51.403Z,100.00
2023-02-01T21:41:37.914Z,100.00
2023-02-01T21:44:07.716Z,100.00
2023-02-01T21:46:35.967Z,100.00
2023-02-01T21:49:07.262Z,100.00
2023-02-01T21:51:37.975Z,100.00
2023-02-01T21:54:07.012Z,100.00
2023-02-01T21:56:35.340Z,100.00
2023-02-01T21:59:04.402Z,100.00
2023-02-01T22:01:34.427Z,100.00
2023-02-01T22:04:12.573Z,100.00
2023-02-01T22:06:48.735Z,100.00
2023-02-01T22:09:19.278Z,100.00
2023-02-01T22:11:47.975Z,100.00
2023-02-01T22:14:16.798Z,100.00
2023-02-01T22:16:47.579Z,100.00
2023-02-01T22:19:16.672Z,100.00
2023-02-01T22:21:46.983Z,100.00
2023-02-01T22:24:16.835Z,100.00
2023-02-01T22:26:45.481Z,100.00
2023-02-01T22:29:15.068Z,100.00
2023-02-01T22:31:44.217Z,100.00
2023-02-01T22:34:15.527Z,100.00
2023-02-01T22:36:44.420Z,100.00
2023-02-01T22:39:12.589Z,100.00
2023-02-01T22:41:40.734Z,100.00
2023-02-01T22:44:09.072Z,100.00
2023-02-01T22:46:37.065Z,100.00
2023-02-01T22:49:05.829Z,100.00
2023-02-01T22:51:35.485Z,100.00
2023-02-01T22:54:03.867Z,100.00
2023-02-01T22:56:34.318Z,100.00
2023-02-01T22:59:04.270Z,99.89
2023-02-01T23:01:33.124Z,100.00
2023-02-01T23:04:02.849Z,99.91
2023-02-01T23:06:32.593Z,100.00
2023-02-01T23:09:03.523Z,100.00
2023-02-01T23:11:32.212Z,100.00
2023-02-01T23:14:00.361Z,100.00
2023-02-01T23:16:28.471Z,100.00
2023-02-01T23:18:56.724Z,99.43
2023-02-01T23:21:24.985Z,99.01
2023-02-01T23:23:54.696Z,99.39
2023-02-01T23:26:27.038Z,98.02
2023-02-01T23:28:56.810Z,97.69
2023-02-01T23:31:26.337Z,98.42
2023-02-01T23:33:56.664Z,95.70
2023-02-01T23:36:26.383Z,97.26
2023-02-01T23:38:54.934Z,94.86
2023-02-01T23:41:27.516Z,93.50
2023-02-01T23:44:02.074Z,94.69
2023-02-01T23:46:34.323Z,94.66
2023-02-01T23:49:03.243Z,91.19
2023-02-01T23:51:31.626Z,95.86
2023-02-01T23:54:00.194Z,92.15
2023-02-01T23:56:33.323Z,94.78
2023-02-01T23:59:02.112Z,94.90
